map of NGS home
NGS - Airport
Location
City:  Nagasaki, Nagasaki, Japan
Near (Alt.):Tokoname
Name:Nagasaki Airport
ICAO:RJFU
IATA:NGS

Details
Type:Airport (Aerodrome, Airfield)
Use:Public/Civil, Military
Latitude:32°55'01"N (32.916944)
Longitude:129°54'49"E (129.913611)
Datum:WGS 1984
Elevation:15 ft (5 m)
Variation:7.36°W (WMM2015v2 magnetic declination)
-0.08° annual change
Runways:2
Longest:9840 × 200 ft (2999 × 61 m), paved

Time
Time Zone:UTC+9
Local Time:

Weather
METAR:RJFU 041200Z 36011KT CAVOK 08/M00 Q1023
TAF:RJFU 041106Z 0412/0518 35010KT 9999 FEW035
BECMG 0418/0420 14005KT
BECMG 0503/0506 33005KT
BECMG 0509/0512 14007KT
TEMPO 0515/0518 4000 -SHRA BR

Related Locations
Nearby:
Farthest:SJRG: 12307 mi / 19806 km
Río Grande [Regional de Río Grande], RS, BR

Find:

   beyond  
but within

Other Information
Maps:
NOTAMs:
Links:
Sources:

  
  • flag of Japan
  • flag of Nagasaki
  • flag of Nagasaki
  

Sectional Chart

Flight Planning
at skyvector.com

Satellite Image

Google Maps Satellite view

 

Copyright © 2004-2019 Karl L. Swartz. All rights reserved.
The Great Circle Mapper name and logo are trademarks of the Great Circle Mapper.
All other trademarks mentioned herein belong to their respective owners.
Please see credits for attibutions and further copyright information.

  Follow gcmap on Facebook Follow gcmap on Twitter GCmap on LinkedIn

hCard Microformat

Geo Microformat